sensor_id;sensor_type;location;lat;lon;timestamp;P1;durP1;ratioP1;P2;durP2;ratioP2
26014;SDS011;13793;55.388;37.844;2022-09-21T00:00:25;18.87;;;13.43;;
26014;SDS011;13793;55.388;37.844;2022-09-21T00:02:56;20.43;;;13.40;;
26014;SDS011;13793;55.388;37.844;2022-09-21T00:05:27;18.00;;;12.10;;
26014;SDS011;13793;55.388;37.844;2022-09-21T00:08:05;16.30;;;12.13;;
26014;SDS011;13793;55.388;37.844;2022-09-21T00:10:36;17.90;;;11.60;;
26014;SDS011;13793;55.388;37.844;2022-09-21T00:13:07;15.67;;;11.90;;
26014;SDS011;13793;55.388;37.844;2022-09-21T00:15:39;16.10;;;11.20;;
26014;SDS011;13793;55.388;37.844;2022-09-21T00:18:09;17.13;;;11.70;;
26014;SDS011;13793;55.388;37.844;2022-09-21T00:20:44;16.60;;;11.50;;
26014;SDS011;13793;55.388;37.844;2022-09-21T00:23:14;18.60;;;11.63;;
26014;SDS011;13793;55.388;37.844;2022-09-21T00:25:45;16.50;;;11.93;;
26014;SDS011;13793;55.388;37.844;2022-09-21T00:28:16;14.77;;;11.33;;
26014;SDS011;13793;55.388;37.844;2022-09-21T00:30:47;13.40;;;10.90;;
26014;SDS011;13793;55.388;37.844;2022-09-21T00:33:19;15.50;;;11.30;;
26014;SDS011;13793;55.388;37.844;2022-09-21T00:35:49;16.00;;;10.87;;
26014;SDS011;13793;55.388;37.844;2022-09-21T00:38:20;15.27;;;10.90;;
26014;SDS011;13793;55.388;37.844;2022-09-21T00:40:51;14.57;;;10.73;;
26014;SDS011;13793;55.388;37.844;2022-09-21T00:43:21;15.70;;;11.40;;
26014;SDS011;13793;55.388;37.844;2022-09-21T00:45:58;14.67;;;11.13;;
26014;SDS011;13793;55.388;37.844;2022-09-21T00:48:29;14.75;;;10.88;;
26014;SDS011;13793;55.388;37.844;2022-09-21T00:51:01;17.10;;;11.33;;
26014;SDS011;13793;55.388;37.844;2022-09-21T00:53:33;15.57;;;11.23;;
26014;SDS011;13793;55.388;37.844;2022-09-21T00:56:04;14.97;;;11.40;;
26014;SDS011;13793;55.388;37.844;2022-09-21T00:58:37;16.90;;;11.77;;
26014;SDS011;13793;55.388;37.844;2022-09-21T01:01:09;14.87;;;11.53;;
26014;SDS011;13793;55.388;37.844;2022-09-21T01:03:42;16.27;;;11.27;;
26014;SDS011;13793;55.388;37.844;2022-09-21T01:06:13;13.80;;;11.20;;
26014;SDS011;13793;55.388;37.844;2022-09-21T01:08:46;14.67;;;11.53;;
26014;SDS011;13793;55.388;37.844;2022-09-21T01:16:42;15.57;;;11.83;;
26014;SDS011;13793;55.388;37.844;2022-09-21T01:24:38;18.27;;;12.83;;
26014;SDS011;13793;55.388;37.844;2022-09-21T01:29:54;17.03;;;11.93;;
26014;SDS011;13793;55.388;37.844;2022-09-21T01:33:14;15.57;;;10.97;;
26014;SDS011;13793;55.388;37.844;2022-09-21T01:38:05;15.70;;;11.63;;
26014;SDS011;13793;55.388;37.844;2022-09-21T01:40:40;14.83;;;10.67;;
26014;SDS011;13793;55.388;37.844;2022-09-21T01:43:17;14.20;;;11.60;;
26014;SDS011;13793;55.388;37.844;2022-09-21T01:45:46;14.17;;;10.90;;
26014;SDS011;13793;55.388;37.844;2022-09-21T01:48:18;13.43;;;10.53;;
26014;SDS011;13793;55.388;37.844;2022-09-21T01:50:51;14.63;;;11.17;;
26014;SDS011;13793;55.388;37.844;2022-09-21T01:53:36;14.43;;;10.33;;
26014;SDS011;13793;55.388;37.844;2022-09-21T01:56:14;12.77;;;10.53;;
26014;SDS011;13793;55.388;37.844;2022-09-21T02:01:30;14.00;;;10.30;;
26014;SDS011;13793;55.388;37.844;2022-09-21T02:04:04;13.90;;;10.30;;
26014;SDS011;13793;55.388;37.844;2022-09-21T02:06:40;14.43;;;10.13;;
26014;SDS011;13793;55.388;37.844;2022-09-21T02:09:12;13.80;;;10.30;;
26014;SDS011;13793;55.388;37.844;2022-09-21T02:11:43;13.40;;;10.47;;
26014;SDS011;13793;55.388;37.844;2022-09-21T02:14:18;11.20;;;9.37;;
26014;SDS011;13793;55.388;37.844;2022-09-21T02:20:06;11.70;;;8.80;;
26014;SDS011;13793;55.388;37.844;2022-09-21T02:25:49;12.63;;;8.97;;
26014;SDS011;13793;55.388;37.844;2022-09-21T02:28:38;11.80;;;9.17;;
26014;SDS011;13793;55.388;37.844;2022-09-21T02:31:30;14.83;;;8.47;;
26014;SDS011;13793;55.388;37.844;2022-09-21T02:34:14;15.00;;;8.83;;
26014;SDS011;13793;55.388;37.844;2022-09-21T02:36:55;10.67;;;8.60;;
26014;SDS011;13793;55.388;37.844;2022-09-21T02:42:11;13.23;;;8.90;;
26014;SDS011;13793;55.388;37.844;2022-09-21T02:45:02;13.97;;;9.87;;
26014;SDS011;13793;55.388;37.844;2022-09-21T02:47:41;14.50;;;9.77;;
26014;SDS011;13793;55.388;37.844;2022-09-21T02:50:28;13.70;;;9.67;;
26014;SDS011;13793;55.388;37.844;2022-09-21T02:52:57;11.47;;;9.50;;
26014;SDS011;13793;55.388;37.844;2022-09-21T02:55:29;14.30;;;10.03;;
26014;SDS011;13793;55.388;37.844;2022-09-21T02:58:06;15.23;;;10.37;;
26014;SDS011;13793;55.388;37.844;2022-09-21T03:00:34;11.60;;;9.40;;
26014;SDS011;13793;55.388;37.844;2022-09-21T03:03:15;13.07;;;9.00;;
26014;SDS011;13793;55.388;37.844;2022-09-21T03:05:53;12.90;;;9.20;;
26014;SDS011;13793;55.388;37.844;2022-09-21T03:08:24;12.63;;;9.63;;
26014;SDS011;13793;55.388;37.844;2022-09-21T03:10:55;13.30;;;8.97;;
26014;SDS011;13793;55.388;37.844;2022-09-21T03:13:26;12.20;;;10.13;;
26014;SDS011;13793;55.388;37.844;2022-09-21T03:15:58;12.17;;;9.70;;
26014;SDS011;13793;55.388;37.844;2022-09-21T03:18:30;12.90;;;10.47;;
26014;SDS011;13793;55.388;37.844;2022-09-21T03:21:01;13.20;;;9.73;;
26014;SDS011;13793;55.388;37.844;2022-09-21T03:23:32;13.93;;;10.40;;
26014;SDS011;13793;55.388;37.844;2022-09-21T03:26:02;12.77;;;10.20;;
26014;SDS011;13793;55.388;37.844;2022-09-21T03:28:34;11.67;;;9.47;;
26014;SDS011;13793;55.388;37.844;2022-09-21T03:31:04;14.40;;;10.40;;
26014;SDS011;13793;55.388;37.844;2022-09-21T03:33:35;15.77;;;11.07;;
26014;SDS011;13793;55.388;37.844;2022-09-21T03:36:06;12.87;;;11.17;;
26014;SDS011;13793;55.388;37.844;2022-09-21T03:38:37;14.47;;;11.60;;
26014;SDS011;13793;55.388;37.844;2022-09-21T03:41:08;14.30;;;11.03;;
26014;SDS011;13793;55.388;37.844;2022-09-21T03:43:39;14.27;;;10.07;;
26014;SDS011;13793;55.388;37.844;2022-09-21T03:46:13;15.73;;;11.77;;
26014;SDS011;13793;55.388;37.844;2022-09-21T03:48:46;12.97;;;10.80;;
26014;SDS011;13793;55.388;37.844;2022-09-21T03:51:17;19.23;;;13.50;;
26014;SDS011;13793;55.388;37.844;2022-09-21T03:53:48;21.20;;;14.33;;
26014;SDS011;13793;55.388;37.844;2022-09-21T03:56:18;16.73;;;13.47;;
26014;SDS011;13793;55.388;37.844;2022-09-21T03:58:49;18.63;;;13.00;;
26014;SDS011;13793;55.388;37.844;2022-09-21T04:01:20;17.70;;;13.90;;
26014;SDS011;13793;55.388;37.844;2022-09-21T04:03:51;20.70;;;15.67;;
26014;SDS011;13793;55.388;37.844;2022-09-21T04:06:22;20.30;;;15.70;;
26014;SDS011;13793;55.388;37.844;2022-09-21T04:08:53;18.47;;;14.80;;
26014;SDS011;13793;55.388;37.844;2022-09-21T04:11:25;16.90;;;14.00;;
26014;SDS011;13793;55.388;37.844;2022-09-21T04:13:56;15.53;;;12.93;;
26014;SDS011;13793;55.388;37.844;2022-09-21T04:16:27;18.17;;;14.03;;
26014;SDS011;13793;55.388;37.844;2022-09-21T04:18:57;16.77;;;13.90;;
26014;SDS011;13793;55.388;37.844;2022-09-21T04:21:28;16.63;;;13.03;;
26014;SDS011;13793;55.388;37.844;2022-09-21T04:24:00;16.10;;;13.13;;
26014;SDS011;13793;55.388;37.844;2022-09-21T04:26:32;17.07;;;14.17;;
26014;SDS011;13793;55.388;37.844;2022-09-21T04:29:03;15.43;;;13.13;;
26014;SDS011;13793;55.388;37.844;2022-09-21T04:31:34;14.67;;;12.37;;
26014;SDS011;13793;55.388;37.844;2022-09-21T04:34:05;17.93;;;12.93;;
26014;SDS011;13793;55.388;37.844;2022-09-21T04:36:37;17.87;;;12.10;;
26014;SDS011;13793;55.388;37.844;2022-09-21T04:39:08;16.40;;;12.17;;
26014;SDS011;13793;55.388;37.844;2022-09-21T04:41:39;17.10;;;12.03;;
26014;SDS011;13793;55.388;37.844;2022-09-21T04:44:09;20.17;;;12.10;;
26014;SDS011;13793;55.388;37.844;2022-09-21T04:46:40;13.83;;;11.73;;
26014;SDS011;13793;55.388;37.844;2022-09-21T04:49:11;19.07;;;11.60;;
26014;SDS011;13793;55.388;37.844;2022-09-21T04:51:42;22.20;;;12.30;;
26014;SDS011;13793;55.388;37.844;2022-09-21T04:54:13;22.50;;;12.50;;
26014;SDS011;13793;55.388;37.844;2022-09-21T04:56:44;22.17;;;11.70;;
26014;SDS011;13793;55.388;37.844;2022-09-21T04:59:15;26.20;;;13.23;;
26014;SDS011;13793;55.388;37.844;2022-09-21T05:01:45;23.53;;;13.43;;
26014;SDS011;13793;55.388;37.844;2022-09-21T05:04:16;22.30;;;13.47;;
26014;SDS011;13793;55.388;37.844;2022-09-21T05:06:48;24.20;;;14.07;;
26014;SDS011;13793;55.388;37.844;2022-09-21T05:09:18;22.70;;;13.67;;
26014;SDS011;13793;55.388;37.844;2022-09-21T05:12:07;24.30;;;12.40;;
26014;SDS011;13793;55.388;37.844;2022-09-21T05:14:38;19.73;;;11.60;;
26014;SDS011;13793;55.388;37.844;2022-09-21T05:17:11;16.67;;;12.17;;
26014;SDS011;13793;55.388;37.844;2022-09-21T05:19:42;20.07;;;11.00;;
26014;SDS011;13793;55.388;37.844;2022-09-21T05:22:13;18.47;;;11.43;;
26014;SDS011;13793;55.388;37.844;2022-09-21T05:24:43;18.30;;;12.03;;
26014;SDS011;13793;55.388;37.844;2022-09-21T05:27:14;17.40;;;12.07;;
26014;SDS011;13793;55.388;37.844;2022-09-21T05:29:45;17.30;;;11.70;;
26014;SDS011;13793;55.388;37.844;2022-09-21T05:37:47;20.63;;;12.33;;
26014;SDS011;13793;55.388;37.844;2022-09-21T05:40:22;20.70;;;12.00;;
26014;SDS011;13793;55.388;37.844;2022-09-21T05:42:54;21.97;;;12.00;;
26014;SDS011;13793;55.388;37.844;2022-09-21T05:45:25;20.23;;;12.33;;
26014;SDS011;13793;55.388;37.844;2022-09-21T05:50:58;21.30;;;12.20;;
26014;SDS011;13793;55.388;37.844;2022-09-21T05:53:54;19.20;;;11.90;;
26014;SDS011;13793;55.388;37.844;2022-09-21T05:56:43;18.23;;;12.00;;
26014;SDS011;13793;55.388;37.844;2022-09-21T06:02:17;19.50;;;12.00;;
26014;SDS011;13793;55.388;37.844;2022-09-21T06:05:16;19.77;;;12.13;;
26014;SDS011;13793;55.388;37.844;2022-09-21T06:07:40;21.52;;;12.68;;
26014;SDS011;13793;55.388;37.844;2022-09-21T06:10:11;17.37;;;12.18;;
26014;SDS011;13793;55.388;37.844;2022-09-21T06:12:43;15.83;;;13.08;;
26014;SDS011;13793;55.388;37.844;2022-09-21T06:15:14;19.17;;;14.35;;
26014;SDS011;13793;55.388;37.844;2022-09-21T06:17:45;20.53;;;13.63;;
26014;SDS011;13793;55.388;37.844;2022-09-21T06:20:16;20.35;;;14.78;;
26014;SDS011;13793;55.388;37.844;2022-09-21T06:22:47;17.73;;;14.05;;
26014;SDS011;13793;55.388;37.844;2022-09-21T06:25:17;16.12;;;12.73;;
26014;SDS011;13793;55.388;37.844;2022-09-21T06:27:49;16.07;;;12.18;;
26014;SDS011;13793;55.388;37.844;2022-09-21T06:30:20;16.73;;;12.10;;
26014;SDS011;13793;55.388;37.844;2022-09-21T06:32:51;16.77;;;12.25;;
26014;SDS011;13793;55.388;37.844;2022-09-21T06:35:22;14.95;;;11.65;;
26014;SDS011;13793;55.388;37.844;2022-09-21T06:37:56;16.07;;;11.12;;
26014;SDS011;13793;55.388;37.844;2022-09-21T06:40:28;14.53;;;11.10;;
26014;SDS011;13793;55.388;37.844;2022-09-21T06:43:00;15.50;;;10.48;;
26014;SDS011;13793;55.388;37.844;2022-09-21T06:45:33;14.28;;;10.35;;
26014;SDS011;13793;55.388;37.844;2022-09-21T06:48:04;15.63;;;10.20;;
26014;SDS011;13793;55.388;37.844;2022-09-21T06:50:35;16.77;;;12.05;;
26014;SDS011;13793;55.388;37.844;2022-09-21T06:53:06;12.05;;;9.43;;
26014;SDS011;13793;55.388;37.844;2022-09-21T06:55:37;11.70;;;9.10;;
26014;SDS011;13793;55.388;37.844;2022-09-21T06:58:08;12.82;;;8.93;;
26014;SDS011;13793;55.388;37.844;2022-09-21T07:00:38;13.38;;;9.00;;
26014;SDS011;13793;55.388;37.844;2022-09-21T07:03:12;9.75;;;8.33;;
26014;SDS011;13793;55.388;37.844;2022-09-21T07:05:44;10.43;;;7.40;;
26014;SDS011;13793;55.388;37.844;2022-09-21T07:08:15;10.60;;;7.97;;
26014;SDS011;13793;55.388;37.844;2022-09-21T07:10:45;12.80;;;8.28;;
26014;SDS011;13793;55.388;37.844;2022-09-21T07:13:16;9.28;;;7.50;;
26014;SDS011;13793;55.388;37.844;2022-09-21T07:15:47;9.08;;;6.90;;
26014;SDS011;13793;55.388;37.844;2022-09-21T07:18:18;7.95;;;6.15;;
26014;SDS011;13793;55.388;37.844;2022-09-21T07:20:49;9.40;;;6.35;;
26014;SDS011;13793;55.388;37.844;2022-09-21T07:23:20;8.13;;;5.50;;
26014;SDS011;13793;55.388;37.844;2022-09-21T07:25:51;6.45;;;5.35;;
26014;SDS011;13793;55.388;37.844;2022-09-21T07:28:22;7.65;;;5.40;;
26014;SDS011;13793;55.388;37.844;2022-09-21T07:30:52;7.25;;;5.20;;
26014;SDS011;13793;55.388;37.844;2022-09-21T07:33:24;8.15;;;5.47;;
26014;SDS011;13793;55.388;37.844;2022-09-21T07:35:55;7.85;;;5.58;;
26014;SDS011;13793;55.388;37.844;2022-09-21T07:38:26;5.72;;;5.12;;
26014;SDS011;13793;55.388;37.844;2022-09-21T07:40:57;5.92;;;5.05;;
26014;SDS011;13793;55.388;37.844;2022-09-21T07:43:30;6.17;;;5.00;;
26014;SDS011;13793;55.388;37.844;2022-09-21T07:46:01;6.75;;;5.40;;
26014;SDS011;13793;55.388;37.844;2022-09-21T07:48:32;7.45;;;5.55;;
26014;SDS011;13793;55.388;37.844;2022-09-21T07:51:04;6.37;;;5.40;;
26014;SDS011;13793;55.388;37.844;2022-09-21T07:53:36;9.18;;;5.12;;
26014;SDS011;13793;55.388;37.844;2022-09-21T07:56:08;9.10;;;6.20;;
26014;SDS011;13793;55.388;37.844;2022-09-21T07:58:40;6.78;;;5.45;;
26014;SDS011;13793;55.388;37.844;2022-09-21T08:01:29;7.33;;;6.20;;
26014;SDS011;13793;55.388;37.844;2022-09-21T08:04:01;9.98;;;6.53;;
26014;SDS011;13793;55.388;37.844;2022-09-21T08:06:33;8.60;;;7.05;;
26014;SDS011;13793;55.388;37.844;2022-09-21T08:09:05;7.33;;;6.10;;
26014;SDS011;13793;55.388;37.844;2022-09-21T08:11:36;8.85;;;7.10;;
26014;SDS011;13793;55.388;37.844;2022-09-21T08:14:08;9.05;;;6.75;;
26014;SDS011;13793;55.388;37.844;2022-09-21T08:16:40;12.58;;;7.40;;
26014;SDS011;13793;55.388;37.844;2022-09-21T08:19:11;9.68;;;7.28;;
26014;SDS011;13793;55.388;37.844;2022-09-21T08:21:46;8.43;;;6.47;;
26014;SDS011;13793;55.388;37.844;2022-09-21T08:24:18;9.08;;;6.62;;
26014;SDS011;13793;55.388;37.844;2022-09-21T08:26:49;9.50;;;6.58;;
26014;SDS011;13793;55.388;37.844;2022-09-21T08:29:20;10.28;;;7.50;;
26014;SDS011;13793;55.388;37.844;2022-09-21T08:31:52;10.40;;;7.28;;
26014;SDS011;13793;55.388;37.844;2022-09-21T08:34:23;11.33;;;7.10;;
26014;SDS011;13793;55.388;37.844;2022-09-21T08:36:53;9.05;;;6.12;;
26014;SDS011;13793;55.388;37.844;2022-09-21T08:39:24;8.43;;;6.28;;
26014;SDS011;13793;55.388;37.844;2022-09-21T08:44:50;6.62;;;5.55;;
26014;SDS011;13793;55.388;37.844;2022-09-21T08:47:27;8.93;;;5.62;;
26014;SDS011;13793;55.388;37.844;2022-09-21T08:50:18;10.28;;;6.55;;
26014;SDS011;13793;55.388;37.844;2022-09-21T08:52:44;9.28;;;6.42;;
26014;SDS011;13793;55.388;37.844;2022-09-21T08:55:17;7.20;;;6.20;;
26014;SDS011;13793;55.388;37.844;2022-09-21T08:57:48;8.80;;;6.83;;
26014;SDS011;13793;55.388;37.844;2022-09-21T09:00:19;8.70;;;6.40;;
26014;SDS011;13793;55.388;37.844;2022-09-21T09:11:33;9.85;;;7.00;;
26014;SDS011;13793;55.388;37.844;2022-09-21T09:20:06;5.83;;;4.67;;
26014;SDS011;13793;55.388;37.844;2022-09-21T09:23:11;6.40;;;4.33;;
26014;SDS011;13793;55.388;37.844;2022-09-21T09:25:27;6.63;;;3.90;;
26014;SDS011;13793;55.388;37.844;2022-09-21T09:28:03;5.90;;;3.83;;
26014;SDS011;13793;55.388;37.844;2022-09-21T09:31:15;5.47;;;3.90;;
26014;SDS011;13793;55.388;37.844;2022-09-21T09:33:29;5.17;;;3.67;;
26014;SDS011;13793;55.388;37.844;2022-09-21T09:36:08;4.70;;;3.60;;
26014;SDS011;13793;55.388;37.844;2022-09-21T09:38:40;5.97;;;3.90;;
26014;SDS011;13793;55.388;37.844;2022-09-21T09:41:22;4.70;;;3.55;;
26014;SDS011;13793;55.388;37.844;2022-09-21T09:46:56;5.12;;;3.90;;
26014;SDS011;13793;55.388;37.844;2022-09-21T09:49:37;7.67;;;3.90;;
26014;SDS011;13793;55.388;37.844;2022-09-21T09:52:10;4.95;;;4.22;;
26014;SDS011;13793;55.388;37.844;2022-09-21T09:54:41;3.60;;;3.17;;
26014;SDS011;13793;55.388;37.844;2022-09-21T09:57:12;5.87;;;3.98;;
26014;SDS011;13793;55.388;37.844;2022-09-21T09:59:45;5.70;;;3.95;;
26014;SDS011;13793;55.388;37.844;2022-09-21T10:02:24;5.42;;;4.70;;
26014;SDS011;13793;55.388;37.844;2022-09-21T10:07:37;6.55;;;4.87;;
26014;SDS011;13793;55.388;37.844;2022-09-21T10:15:50;4.95;;;3.83;;
26014;SDS011;13793;55.388;37.844;2022-09-21T10:21:13;5.58;;;3.30;;
26014;SDS011;13793;55.388;37.844;2022-09-21T10:23:51;4.05;;;3.10;;
26014;SDS011;13793;55.388;37.844;2022-09-21T10:26:41;5.00;;;3.60;;
26014;SDS011;13793;55.388;37.844;2022-09-21T10:31:57;4.50;;;3.33;;
26014;SDS011;13793;55.388;37.844;2022-09-21T10:34:32;6.85;;;4.17;;
26014;SDS011;13793;55.388;37.844;2022-09-21T10:40:02;4.53;;;3.58;;
26014;SDS011;13793;55.388;37.844;2022-09-21T10:42:35;5.70;;;3.65;;
26014;SDS011;13793;55.388;37.844;2022-09-21T10:45:12;4.60;;;3.70;;
26014;SDS011;13793;55.388;37.844;2022-09-21T10:47:48;4.47;;;3.70;;
26014;SDS011;13793;55.388;37.844;2022-09-21T10:50:29;4.45;;;3.80;;
26014;SDS011;13793;55.388;37.844;2022-09-21T10:55:42;5.40;;;4.20;;
26014;SDS011;13793;55.388;37.844;2022-09-21T10:58:14;5.60;;;3.80;;
26014;SDS011;13793;55.388;37.844;2022-09-21T11:00:46;5.28;;;4.03;;
26014;SDS011;13793;55.388;37.844;2022-09-21T11:06:38;5.12;;;3.37;;
26014;SDS011;13793;55.388;37.844;2022-09-21T11:09:11;5.67;;;4.33;;
26014;SDS011;13793;55.388;37.844;2022-09-21T11:12:01;5.60;;;4.25;;
26014;SDS011;13793;55.388;37.844;2022-09-21T11:23:14;7.17;;;4.70;;
26014;SDS011;13793;55.388;37.844;2022-09-21T11:26:02;6.90;;;4.20;;
26014;SDS011;13793;55.388;37.844;2022-09-21T11:28:42;6.17;;;4.22;;
26014;SDS011;13793;55.388;37.844;2022-09-21T11:31:36;4.53;;;3.75;;
26014;SDS011;13793;55.388;37.844;2022-09-21T11:37:27;4.70;;;3.72;;
26014;SDS011;13793;55.388;37.844;2022-09-21T11:46:05;4.55;;;3.22;;
26014;SDS011;13793;55.388;37.844;2022-09-21T11:48:52;5.15;;;3.50;;
26014;SDS011;13793;55.388;37.844;2022-09-21T11:57:17;3.33;;;2.87;;
26014;SDS011;13793;55.388;37.844;2022-09-21T12:08:38;4.53;;;2.60;;
26014;SDS011;13793;55.388;37.844;2022-09-21T12:21:46;2.83;;;2.47;;
26014;SDS011;13793;55.388;37.844;2022-09-21T12:24:21;3.45;;;2.70;;
26014;SDS011;13793;55.388;37.844;2022-09-21T12:26:56;2.75;;;2.30;;
26014;SDS011;13793;55.388;37.844;2022-09-21T12:29:33;5.75;;;2.90;;
26014;SDS011;13793;55.388;37.844;2022-09-21T12:32:20;3.67;;;2.40;;
26014;SDS011;13793;55.388;37.844;2022-09-21T12:34:56;4.87;;;3.08;;
26014;SDS011;13793;55.388;37.844;2022-09-21T12:37:34;3.58;;;2.70;;
26014;SDS011;13793;55.388;37.844;2022-09-21T12:48:32;5.03;;;2.50;;
26014;SDS011;13793;55.388;37.844;2022-09-21T12:51:26;4.53;;;2.37;;
26014;SDS011;13793;55.388;37.844;2022-09-21T12:54:03;3.22;;;2.10;;
26014;SDS011;13793;55.388;37.844;2022-09-21T12:56:43;3.22;;;2.40;;
26014;SDS011;13793;55.388;37.844;2022-09-21T13:02:35;2.40;;;2.20;;
26014;SDS011;13793;55.388;37.844;2022-09-21T13:05:11;4.08;;;2.40;;
26014;SDS011;13793;55.388;37.844;2022-09-21T13:07:55;3.37;;;2.30;;
26014;SDS011;13793;55.388;37.844;2022-09-21T13:10:42;4.03;;;2.60;;
26014;SDS011;13793;55.388;37.844;2022-09-21T13:13:34;3.45;;;2.30;;
26014;SDS011;13793;55.388;37.844;2022-09-21T13:16:01;5.17;;;2.40;;
26014;SDS011;13793;55.388;37.844;2022-09-21T13:18:36;4.90;;;2.50;;
26014;SDS011;13793;55.388;37.844;2022-09-21T13:21:14;3.67;;;2.65;;
26014;SDS011;13793;55.388;37.844;2022-09-21T13:23:55;3.90;;;2.62;;
26014;SDS011;13793;55.388;37.844;2022-09-21T13:26:32;5.58;;;2.70;;
26014;SDS011;13793;55.388;37.844;2022-09-21T13:31:57;2.62;;;2.27;;
26014;SDS011;13793;55.388;37.844;2022-09-21T13:47:45;4.72;;;3.60;;
26014;SDS011;13793;55.388;37.844;2022-09-21T13:50:35;4.72;;;3.40;;
26014;SDS011;13793;55.388;37.844;2022-09-21T13:53:17;5.35;;;3.67;;
26014;SDS011;13793;55.388;37.844;2022-09-21T13:55:56;11.18;;;8.45;;
26014;SDS011;13793;55.388;37.844;2022-09-21T13:58:30;38.60;;;27.65;;
26014;SDS011;13793;55.388;37.844;2022-09-21T14:01:04;32.17;;;20.75;;
26014;SDS011;13793;55.388;37.844;2022-09-21T14:03:38;19.67;;;14.58;;
26014;SDS011;13793;55.388;37.844;2022-09-21T14:06:17;25.43;;;17.82;;
26014;SDS011;13793;55.388;37.844;2022-09-21T14:08:56;18.62;;;13.75;;
26014;SDS011;13793;55.388;37.844;2022-09-21T14:11:32;21.83;;;16.47;;
26014;SDS011;13793;55.388;37.844;2022-09-21T14:16:56;25.20;;;17.20;;
26014;SDS011;13793;55.388;37.844;2022-09-21T14:24:41;9.93;;;6.67;;
26014;SDS011;13793;55.388;37.844;2022-09-21T14:29:57;9.13;;;6.62;;
26014;SDS011;13793;55.388;37.844;2022-09-21T14:32:35;8.48;;;6.50;;
26014;SDS011;13793;55.388;37.844;2022-09-21T14:35:20;9.45;;;6.58;;
26014;SDS011;13793;55.388;37.844;2022-09-21T14:38:12;6.10;;;4.30;;
26014;SDS011;13793;55.388;37.844;2022-09-21T14:40:43;5.08;;;4.58;;
26014;SDS011;13793;55.388;37.844;2022-09-21T14:43:15;4.37;;;3.60;;
26014;SDS011;13793;55.388;37.844;2022-09-21T14:46:07;3.47;;;3.15;;
26014;SDS011;13793;55.388;37.844;2022-09-21T14:48:53;3.65;;;3.02;;
26014;SDS011;13793;55.388;37.844;2022-09-21T15:00:11;6.53;;;4.00;;
26014;SDS011;13793;55.388;37.844;2022-09-21T15:02:44;5.10;;;4.00;;
26014;SDS011;13793;55.388;37.844;2022-09-21T15:08:07;5.75;;;4.50;;
26014;SDS011;13793;55.388;37.844;2022-09-21T15:16:41;5.40;;;4.15;;
26014;SDS011;13793;55.388;37.844;2022-09-21T15:22:08;6.55;;;4.80;;
26014;SDS011;13793;55.388;37.844;2022-09-21T15:24:53;5.55;;;4.60;;
26014;SDS011;13793;55.388;37.844;2022-09-21T15:27:21;6.65;;;5.95;;
26014;SDS011;13793;55.388;37.844;2022-09-21T15:29:59;6.33;;;4.80;;
26014;SDS011;13793;55.388;37.844;2022-09-21T15:35:17;7.55;;;6.25;;
26014;SDS011;13793;55.388;37.844;2022-09-21T15:37:49;7.58;;;6.00;;
26014;SDS011;13793;55.388;37.844;2022-09-21T15:40:22;9.58;;;6.37;;
26014;SDS011;13793;55.388;37.844;2022-09-21T15:42:57;9.23;;;7.08;;
26014;SDS011;13793;55.388;37.844;2022-09-21T15:45:50;12.40;;;8.00;;
26014;SDS011;13793;55.388;37.844;2022-09-21T15:48:27;7.42;;;5.87;;
26014;SDS011;13793;55.388;37.844;2022-09-21T15:51:23;5.47;;;3.85;;
26014;SDS011;13793;55.388;37.844;2022-09-21T15:53:53;3.83;;;3.35;;
26014;SDS011;13793;55.388;37.844;2022-09-21T15:56:26;4.25;;;3.47;;
26014;SDS011;13793;55.388;37.844;2022-09-21T15:58:57;4.20;;;3.42;;
26014;SDS011;13793;55.388;37.844;2022-09-21T16:01:31;3.58;;;2.98;;
26014;SDS011;13793;55.388;37.844;2022-09-21T16:04:25;6.08;;;3.65;;
26014;SDS011;13793;55.388;37.844;2022-09-21T16:07:00;4.75;;;3.70;;
26014;SDS011;13793;55.388;37.844;2022-09-21T16:09:43;5.67;;;3.85;;
26014;SDS011;13793;55.388;37.844;2022-09-21T16:12:31;4.45;;;3.60;;
26014;SDS011;13793;55.388;37.844;2022-09-21T16:15:47;5.20;;;4.30;;
26014;SDS011;13793;55.388;37.844;2022-09-21T16:17:56;4.50;;;3.33;;
26014;SDS011;13793;55.388;37.844;2022-09-21T16:20:42;5.58;;;3.65;;
26014;SDS011;13793;55.388;37.844;2022-09-21T16:23:18;6.33;;;3.95;;
26014;SDS011;13793;55.388;37.844;2022-09-21T16:25:54;4.25;;;3.50;;
26014;SDS011;13793;55.388;37.844;2022-09-21T16:28:37;5.20;;;3.62;;
26014;SDS011;13793;55.388;37.844;2022-09-21T16:31:25;6.92;;;4.72;;
26014;SDS011;13793;55.388;37.844;2022-09-21T16:34:16;7.00;;;6.20;;
26014;SDS011;13793;55.388;37.844;2022-09-21T16:36:35;11.48;;;10.45;;
26014;SDS011;13793;55.388;37.844;2022-09-21T16:39:09;12.00;;;10.75;;
26014;SDS011;13793;55.388;37.844;2022-09-21T16:41:42;8.85;;;7.87;;
26014;SDS011;13793;55.388;37.844;2022-09-21T16:44:16;8.30;;;6.65;;
26014;SDS011;13793;55.388;37.844;2022-09-21T16:46:55;10.63;;;7.67;;
26014;SDS011;13793;55.388;37.844;2022-09-21T16:49:32;10.58;;;9.48;;
26014;SDS011;13793;55.388;37.844;2022-09-21T16:52:03;11.78;;;10.08;;
26014;SDS011;13793;55.388;37.844;2022-09-21T16:54:35;19.70;;;16.97;;
26014;SDS011;13793;55.388;37.844;2022-09-21T16:57:05;17.45;;;15.65;;
26014;SDS011;13793;55.388;37.844;2022-09-21T16:59:37;14.70;;;13.20;;
26014;SDS011;13793;55.388;37.844;2022-09-21T17:02:09;15.10;;;13.30;;
26014;SDS011;13793;55.388;37.844;2022-09-21T17:04:41;13.18;;;10.88;;
26014;SDS011;13793;55.388;37.844;2022-09-21T17:07:13;12.65;;;10.00;;
26014;SDS011;13793;55.388;37.844;2022-09-21T17:09:44;11.30;;;9.85;;
26014;SDS011;13793;55.388;37.844;2022-09-21T17:12:16;12.10;;;10.58;;
26014;SDS011;13793;55.388;37.844;2022-09-21T17:14:47;12.13;;;9.35;;
26014;SDS011;13793;55.388;37.844;2022-09-21T17:17:23;10.72;;;9.55;;
26014;SDS011;13793;55.388;37.844;2022-09-21T17:19:54;10.78;;;9.63;;
26014;SDS011;13793;55.388;37.844;2022-09-21T17:22:24;12.47;;;9.45;;
26014;SDS011;13793;55.388;37.844;2022-09-21T17:24:56;11.30;;;9.58;;
26014;SDS011;13793;55.388;37.844;2022-09-21T17:27:28;11.55;;;9.80;;
26014;SDS011;13793;55.388;37.844;2022-09-21T17:29:59;13.13;;;10.28;;
26014;SDS011;13793;55.388;37.844;2022-09-21T17:32:31;17.98;;;10.82;;
26014;SDS011;13793;55.388;37.844;2022-09-21T17:35:12;12.90;;;10.70;;
26014;SDS011;13793;55.388;37.844;2022-09-21T17:37:58;11.97;;;8.98;;
26014;SDS011;13793;55.388;37.844;2022-09-21T17:40:30;10.38;;;8.18;;
26014;SDS011;13793;55.388;37.844;2022-09-21T17:43:26;11.18;;;8.08;;
26014;SDS011;13793;55.388;37.844;2022-09-21T17:45:55;11.22;;;9.18;;
26014;SDS011;13793;55.388;37.844;2022-09-21T17:48:42;12.07;;;8.00;;
26014;SDS011;13793;55.388;37.844;2022-09-21T17:51:13;11.10;;;7.67;;
26014;SDS011;13793;55.388;37.844;2022-09-21T17:53:46;10.23;;;8.20;;
26014;SDS011;13793;55.388;37.844;2022-09-21T17:56:23;9.25;;;7.72;;
26014;SDS011;13793;55.388;37.844;2022-09-21T18:02:01;6.97;;;6.28;;
26014;SDS011;13793;55.388;37.844;2022-09-21T18:04:36;9.60;;;6.65;;
26014;SDS011;13793;55.388;37.844;2022-09-21T18:07:07;8.13;;;6.05;;
26014;SDS011;13793;55.388;37.844;2022-09-21T18:09:39;6.70;;;5.55;;
26014;SDS011;13793;55.388;37.844;2022-09-21T18:14:51;10.25;;;7.35;;
26014;SDS011;13793;55.388;37.844;2022-09-21T18:25:41;10.38;;;8.10;;